sensor_id;sensor_type;location;lat;lon;timestamp;P1;durP1;ratioP1;P2;durP2;ratioP2
11173;SDS011;5643;50.856;12.088;2022-12-29T00:01:10;0.93;;;0.73;;
11173;SDS011;5643;50.856;12.088;2022-12-29T00:03:37;0.60;;;0.60;;
11173;SDS011;5643;50.856;12.088;2022-12-29T00:06:06;0.70;;;0.70;;
11173;SDS011;5643;50.856;12.088;2022-12-29T00:08:33;0.70;;;0.70;;
11173;SDS011;5643;50.856;12.088;2022-12-29T00:11:10;0.70;;;0.70;;
11173;SDS011;5643;50.856;12.088;2022-12-29T00:13:38;0.90;;;0.73;;
11173;SDS011;5643;50.856;12.088;2022-12-29T00:16:22;0.77;;;0.77;;
11173;SDS011;5643;50.856;12.088;2022-12-29T00:18:50;0.90;;;0.90;;
11173;SDS011;5643;50.856;12.088;2022-12-29T00:21:19;1.10;;;0.80;;
11173;SDS011;5643;50.856;12.088;2022-12-29T00:24:04;0.90;;;0.90;;
11173;SDS011;5643;50.856;12.088;2022-12-29T00:26:49;1.07;;;0.80;;
11173;SDS011;5643;50.856;12.088;2022-12-29T00:29:37;0.90;;;0.77;;
11173;SDS011;5643;50.856;12.088;2022-12-29T00:32:21;1.03;;;0.70;;
11173;SDS011;5643;50.856;12.088;2022-12-29T03:36:02;0.93;;;0.93;;
11173;SDS011;5643;50.856;12.088;2022-12-29T03:38:31;0.93;;;0.93;;
11173;SDS011;5643;50.856;12.088;2022-12-29T03:41:01;0.60;;;0.60;;
11173;SDS011;5643;50.856;12.088;2022-12-29T03:43:30;0.80;;;0.80;;
11173;SDS011;5643;50.856;12.088;2022-12-29T03:45:58;1.33;;;1.00;;
11173;SDS011;5643;50.856;12.088;2022-12-29T03:48:25;0.80;;;0.80;;
11173;SDS011;5643;50.856;12.088;2022-12-29T03:50:53;1.40;;;1.00;;
11173;SDS011;5643;50.856;12.088;2022-12-29T03:53:21;0.80;;;0.80;;
11173;SDS011;5643;50.856;12.088;2022-12-29T03:55:48;1.00;;;0.80;;
11173;SDS011;5643;50.856;12.088;2022-12-29T03:58:16;0.80;;;0.80;;
11173;SDS011;5643;50.856;12.088;2022-12-29T04:00:43;0.80;;;0.80;;
11173;SDS011;5643;50.856;12.088;2022-12-29T04:03:10;0.80;;;0.80;;
11173;SDS011;5643;50.856;12.088;2022-12-29T04:05:38;0.80;;;0.80;;
11173;SDS011;5643;50.856;12.088;2022-12-29T04:08:05;0.90;;;0.90;;
11173;SDS011;5643;50.856;12.088;2022-12-29T04:10:34;1.10;;;1.00;;
11173;SDS011;5643;50.856;12.088;2022-12-29T04:13:01;0.93;;;0.90;;
11173;SDS011;5643;50.856;12.088;2022-12-29T04:15:29;1.20;;;0.80;;
11173;SDS011;5643;50.856;12.088;2022-12-29T04:17:56;0.60;;;0.60;;
11173;SDS011;5643;50.856;12.088;2022-12-29T04:20:23;0.87;;;0.87;;
11173;SDS011;5643;50.856;12.088;2022-12-29T04:23:08;0.90;;;0.90;;
11173;SDS011;5643;50.856;12.088;2022-12-29T04:25:36;1.27;;;0.90;;
11173;SDS011;5643;50.856;12.088;2022-12-29T04:28:04;1.10;;;0.90;;
11173;SDS011;5643;50.856;12.088;2022-12-29T04:30:33;1.17;;;1.00;;
11173;SDS011;5643;50.856;12.088;2022-12-29T04:33:00;0.90;;;0.90;;
11173;SDS011;5643;50.856;12.088;2022-12-29T07:35:30;1.17;;;0.73;;
11173;SDS011;5643;50.856;12.088;2022-12-29T07:37:59;1.20;;;0.80;;
11173;SDS011;5643;50.856;12.088;2022-12-29T07:40:27;0.63;;;0.63;;
11173;SDS011;5643;50.856;12.088;2022-12-29T07:42:54;1.53;;;1.00;;
11173;SDS011;5643;50.856;12.088;2022-12-29T07:45:22;1.83;;;0.80;;
11173;SDS011;5643;50.856;12.088;2022-12-29T07:47:49;0.87;;;0.83;;
11173;SDS011;5643;50.856;12.088;2022-12-29T07:50:17;0.80;;;0.77;;
11173;SDS011;5643;50.856;12.088;2022-12-29T07:52:46;0.80;;;0.70;;
11173;SDS011;5643;50.856;12.088;2022-12-29T07:55:14;0.70;;;0.70;;
11173;SDS011;5643;50.856;12.088;2022-12-29T07:57:41;0.70;;;0.70;;
11173;SDS011;5643;50.856;12.088;2022-12-29T08:00:09;0.70;;;0.70;;
11173;SDS011;5643;50.856;12.088;2022-12-29T08:02:37;0.70;;;0.70;;
11173;SDS011;5643;50.856;12.088;2022-12-29T08:05:05;1.70;;;0.80;;
11173;SDS011;5643;50.856;12.088;2022-12-29T08:07:32;0.70;;;0.70;;
11173;SDS011;5643;50.856;12.088;2022-12-29T08:10:05;0.67;;;0.60;;
11173;SDS011;5643;50.856;12.088;2022-12-29T08:12:38;0.60;;;0.60;;
11173;SDS011;5643;50.856;12.088;2022-12-29T08:15:13;0.87;;;0.70;;
11173;SDS011;5643;50.856;12.088;2022-12-29T08:17:40;2.00;;;0.67;;
11173;SDS011;5643;50.856;12.088;2022-12-29T08:20:09;0.60;;;0.60;;
11173;SDS011;5643;50.856;12.088;2022-12-29T08:22:36;1.13;;;0.80;;
11173;SDS011;5643;50.856;12.088;2022-12-29T08:25:05;0.90;;;0.60;;
11173;SDS011;5643;50.856;12.088;2022-12-29T08:27:34;0.77;;;0.60;;
11173;SDS011;5643;50.856;12.088;2022-12-29T08:30:01;0.60;;;0.60;;
11173;SDS011;5643;50.856;12.088;2022-12-29T08:32:28;2.20;;;0.70;;
11173;SDS011;5643;50.856;12.088;2022-12-29T08:34:57;0.60;;;0.50;;
11173;SDS011;5643;50.856;12.088;2022-12-29T08:37:24;1.07;;;0.70;;
11173;SDS011;5643;50.856;12.088;2022-12-29T08:39:51;0.83;;;0.60;;
11173;SDS011;5643;50.856;12.088;2022-12-29T08:42:20;0.70;;;0.70;;
11173;SDS011;5643;50.856;12.088;2022-12-29T08:44:48;0.67;;;0.60;;
11173;SDS011;5643;50.856;12.088;2022-12-29T08:47:16;0.90;;;0.90;;
11173;SDS011;5643;50.856;12.088;2022-12-29T08:49:43;1.20;;;0.80;;
11173;SDS011;5643;50.856;12.088;2022-12-29T08:52:11;1.67;;;0.80;;
11173;SDS011;5643;50.856;12.088;2022-12-29T08:54:39;0.70;;;0.70;;
11173;SDS011;5643;50.856;12.088;2022-12-29T08:57:06;1.13;;;0.70;;
11173;SDS011;5643;50.856;12.088;2022-12-29T08:59:38;0.73;;;0.60;;
11173;SDS011;5643;50.856;12.088;2022-12-29T09:02:08;0.70;;;0.70;;
11173;SDS011;5643;50.856;12.088;2022-12-29T09:04:36;1.77;;;0.80;;
11173;SDS011;5643;50.856;12.088;2022-12-29T09:07:06;1.43;;;0.70;;
11173;SDS011;5643;50.856;12.088;2022-12-29T09:09:33;1.80;;;0.80;;
11173;SDS011;5643;50.856;12.088;2022-12-29T09:12:01;1.03;;;0.80;;
11173;SDS011;5643;50.856;12.088;2022-12-29T09:14:29;1.10;;;0.90;;
11173;SDS011;5643;50.856;12.088;2022-12-29T09:16:58;0.70;;;0.70;;
11173;SDS011;5643;50.856;12.088;2022-12-29T09:19:42;1.43;;;1.00;;
11173;SDS011;5643;50.856;12.088;2022-12-29T09:22:10;1.00;;;0.90;;
11173;SDS011;5643;50.856;12.088;2022-12-29T09:24:37;0.80;;;0.80;;
11173;SDS011;5643;50.856;12.088;2022-12-29T09:27:04;0.70;;;0.70;;
11173;SDS011;5643;50.856;12.088;2022-12-29T09:29:31;0.90;;;0.90;;
11173;SDS011;5643;50.856;12.088;2022-12-29T09:32:00;1.03;;;1.00;;
11173;SDS011;5643;50.856;12.088;2022-12-29T09:34:28;0.73;;;0.73;;
11173;SDS011;5643;50.856;12.088;2022-12-29T09:36:57;0.67;;;0.60;;
11173;SDS011;5643;50.856;12.088;2022-12-29T09:39:24;0.80;;;0.80;;
11173;SDS011;5643;50.856;12.088;2022-12-29T09:41:52;1.20;;;0.80;;
11173;SDS011;5643;50.856;12.088;2022-12-29T09:44:29;1.10;;;1.00;;
11173;SDS011;5643;50.856;12.088;2022-12-29T09:47:00;0.70;;;0.70;;
11173;SDS011;5643;50.856;12.088;2022-12-29T09:49:28;2.63;;;0.80;;
11173;SDS011;5643;50.856;12.088;2022-12-29T09:52:01;0.70;;;0.63;;
11173;SDS011;5643;50.856;12.088;2022-12-29T09:54:34;0.80;;;0.80;;
11173;SDS011;5643;50.856;12.088;2022-12-29T09:57:03;1.53;;;0.70;;
11173;SDS011;5643;50.856;12.088;2022-12-29T09:59:35;0.80;;;0.80;;
11173;SDS011;5643;50.856;12.088;2022-12-29T10:02:11;0.70;;;0.70;;
11173;SDS011;5643;50.856;12.088;2022-12-29T10:04:42;0.70;;;0.70;;
11173;SDS011;5643;50.856;12.088;2022-12-29T10:07:14;1.07;;;0.87;;
11173;SDS011;5643;50.856;12.088;2022-12-29T10:09:45;1.30;;;1.20;;
11173;SDS011;5643;50.856;12.088;2022-12-29T10:12:16;3.23;;;2.73;;
11173;SDS011;5643;50.856;12.088;2022-12-29T10:14:58;1.50;;;1.37;;
11173;SDS011;5643;50.856;12.088;2022-12-29T10:17:37;2.30;;;2.10;;
11173;SDS011;5643;50.856;12.088;2022-12-29T10:20:16;5.33;;;4.83;;
11173;SDS011;5643;50.856;12.088;2022-12-29T10:22:51;4.97;;;4.57;;
11173;SDS011;5643;50.856;12.088;2022-12-29T10:25:22;2.20;;;2.00;;
11173;SDS011;5643;50.856;12.088;2022-12-29T10:27:51;2.70;;;1.30;;
11173;SDS011;5643;50.856;12.088;2022-12-29T10:30:21;1.40;;;1.30;;
11173;SDS011;5643;50.856;12.088;2022-12-29T10:32:57;1.30;;;1.20;;
11173;SDS011;5643;50.856;12.088;2022-12-29T11:36:34;0.80;;;0.70;;
11173;SDS011;5643;50.856;12.088;2022-12-29T11:39:02;1.10;;;1.00;;
11173;SDS011;5643;50.856;12.088;2022-12-29T11:41:31;1.20;;;1.07;;
11173;SDS011;5643;50.856;12.088;2022-12-29T11:43:59;1.17;;;1.07;;
11173;SDS011;5643;50.856;12.088;2022-12-29T11:46:32;1.33;;;1.30;;
11173;SDS011;5643;50.856;12.088;2022-12-29T11:49:02;6.60;;;6.00;;
11173;SDS011;5643;50.856;12.088;2022-12-29T11:51:30;4.17;;;3.83;;
11173;SDS011;5643;50.856;12.088;2022-12-29T11:54:01;3.60;;;3.30;;
11173;SDS011;5643;50.856;12.088;2022-12-29T11:56:34;2.27;;;2.07;;
11173;SDS011;5643;50.856;12.088;2022-12-29T12:01:53;1.30;;;1.20;;
11173;SDS011;5643;50.856;12.088;2022-12-29T12:04:22;1.20;;;1.10;;
11173;SDS011;5643;50.856;12.088;2022-12-29T12:07:01;1.57;;;0.93;;
11173;SDS011;5643;50.856;12.088;2022-12-29T12:09:31;1.10;;;1.00;;
11173;SDS011;5643;50.856;12.088;2022-12-29T12:12:02;1.40;;;0.90;;
11173;SDS011;5643;50.856;12.088;2022-12-29T12:14:31;1.13;;;1.03;;
11173;SDS011;5643;50.856;12.088;2022-12-29T12:17:02;1.10;;;0.97;;
11173;SDS011;5643;50.856;12.088;2022-12-29T12:19:32;2.67;;;1.03;;
11173;SDS011;5643;50.856;12.088;2022-12-29T12:22:00;1.50;;;0.97;;
11173;SDS011;5643;50.856;12.088;2022-12-29T12:24:36;1.10;;;0.87;;
11173;SDS011;5643;50.856;12.088;2022-12-29T12:27:09;1.10;;;1.00;;
11173;SDS011;5643;50.856;12.088;2022-12-29T12:29:40;1.43;;;1.13;;
11173;SDS011;5643;50.856;12.088;2022-12-29T12:32:11;1.20;;;1.10;;
11173;SDS011;5643;50.856;12.088;2022-12-29T12:34:43;1.93;;;0.93;;
11173;SDS011;5643;50.856;12.088;2022-12-29T15:35:22;1.30;;;1.20;;
11173;SDS011;5643;50.856;12.088;2022-12-29T15:37:50;1.33;;;1.07;;
11173;SDS011;5643;50.856;12.088;2022-12-29T15:40:21;2.00;;;1.10;;
11173;SDS011;5643;50.856;12.088;2022-12-29T15:42:52;1.20;;;1.10;;
11173;SDS011;5643;50.856;12.088;2022-12-29T15:45:30;1.77;;;1.50;;
11173;SDS011;5643;50.856;12.088;2022-12-29T15:48:00;1.60;;;1.37;;
11173;SDS011;5643;50.856;12.088;2022-12-29T15:50:33;1.23;;;1.13;;
11173;SDS011;5643;50.856;12.088;2022-12-29T15:53:03;2.20;;;1.30;;
11173;SDS011;5643;50.856;12.088;2022-12-29T15:55:44;1.10;;;1.00;;
11173;SDS011;5643;50.856;12.088;2022-12-29T15:58:18;1.40;;;1.30;;
11173;SDS011;5643;50.856;12.088;2022-12-29T16:00:47;1.00;;;0.90;;
11173;SDS011;5643;50.856;12.088;2022-12-29T16:03:21;1.10;;;1.00;;
11173;SDS011;5643;50.856;12.088;2022-12-29T16:05:56;1.30;;;1.10;;
11173;SDS011;5643;50.856;12.088;2022-12-29T16:08:27;1.43;;;1.00;;
11173;SDS011;5643;50.856;12.088;2022-12-29T16:10:58;1.80;;;1.17;;
11173;SDS011;5643;50.856;12.088;2022-12-29T16:13:27;1.20;;;1.10;;
11173;SDS011;5643;50.856;12.088;2022-12-29T16:15:56;1.57;;;1.17;;
11173;SDS011;5643;50.856;12.088;2022-12-29T17:19:59;1.80;;;1.40;;
11173;SDS011;5643;50.856;12.088;2022-12-29T17:22:29;1.60;;;1.30;;
11173;SDS011;5643;50.856;12.088;2022-12-29T17:24:58;1.43;;;1.10;;
11173;SDS011;5643;50.856;12.088;2022-12-29T17:27:33;1.20;;;1.10;;
11173;SDS011;5643;50.856;12.088;2022-12-29T17:30:03;1.40;;;1.30;;
11173;SDS011;5643;50.856;12.088;2022-12-29T17:32:32;1.03;;;0.93;;
11173;SDS011;5643;50.856;12.088;2022-12-29T17:35:05;1.03;;;0.93;;
11173;SDS011;5643;50.856;12.088;2022-12-29T17:37:34;1.17;;;0.80;;
11173;SDS011;5643;50.856;12.088;2022-12-29T17:40:03;1.43;;;1.10;;
11173;SDS011;5643;50.856;12.088;2022-12-29T17:42:31;0.80;;;0.80;;
11173;SDS011;5643;50.856;12.088;2022-12-29T17:45:00;0.87;;;0.87;;
11173;SDS011;5643;50.856;12.088;2022-12-29T17:47:28;1.17;;;0.90;;
11173;SDS011;5643;50.856;12.088;2022-12-29T17:49:56;0.90;;;0.90;;
11173;SDS011;5643;50.856;12.088;2022-12-29T17:52:25;1.13;;;1.03;;
11173;SDS011;5643;50.856;12.088;2022-12-29T17:54:52;0.90;;;0.90;;
11173;SDS011;5643;50.856;12.088;2022-12-29T17:57:21;0.77;;;0.77;;
11173;SDS011;5643;50.856;12.088;2022-12-29T17:59:48;0.87;;;0.87;;
11173;SDS011;5643;50.856;12.088;2022-12-29T18:02:21;1.03;;;0.90;;
11173;SDS011;5643;50.856;12.088;2022-12-29T18:04:50;0.80;;;0.80;;
11173;SDS011;5643;50.856;12.088;2022-12-29T23:12:07;1.17;;;0.50;;
11173;SDS011;5643;50.856;12.088;2022-12-29T23:14:34;0.50;;;0.50;;
11173;SDS011;5643;50.856;12.088;2022-12-29T23:17:02;0.50;;;0.40;;
11173;SDS011;5643;50.856;12.088;2022-12-29T23:19:29;0.77;;;0.60;;
11173;SDS011;5643;50.856;12.088;2022-12-29T23:21:56;0.70;;;0.50;;
11173;SDS011;5643;50.856;12.088;2022-12-29T23:24:24;0.90;;;0.50;;
11173;SDS011;5643;50.856;12.088;2022-12-29T23:26:51;0.80;;;0.60;;
11173;SDS011;5643;50.856;12.088;2022-12-29T23:29:20;0.87;;;0.40;;
11173;SDS011;5643;50.856;12.088;2022-12-29T23:31:48;1.43;;;0.70;;
11173;SDS011;5643;50.856;12.088;2022-12-29T23:34:16;0.60;;;0.50;;
11173;SDS011;5643;50.856;12.088;2022-12-29T23:36:44;1.23;;;0.40;;
11173;SDS011;5643;50.856;12.088;2022-12-29T23:39:17;0.50;;;0.50;;
11173;SDS011;5643;50.856;12.088;2022-12-29T23:41:44;1.23;;;0.40;;
11173;SDS011;5643;50.856;12.088;2022-12-29T23:44:11;0.80;;;0.50;;
11173;SDS011;5643;50.856;12.088;2022-12-29T23:46:40;0.87;;;0.50;;
11173;SDS011;5643;50.856;12.088;2022-12-29T23:49:08;1.00;;;0.40;;
11173;SDS011;5643;50.856;12.088;2022-12-29T23:51:35;0.80;;;0.53;;
11173;SDS011;5643;50.856;12.088;2022-12-29T23:54:04;0.70;;;0.57;;
11173;SDS011;5643;50.856;12.088;2022-12-29T23:56:31;0.47;;;0.43;;
11173;SDS011;5643;50.856;12.088;2022-12-29T23:58:58;1.10;;;0.60;;
